Time;durP1;ratioP1;P1;durP2;ratioP2;P2;SDS_P1;SDS_P2;PMS_P1;PMS_P2;Temp;Humidity;BMP_temperature;BMP_pressure;BME280_temperature;BME280_humidity;BME280_pressure;Samples;Min_cycle;Max_cycle;Signal;HPM_P1;HPM_P2
2023/01/14 00:00:19;;;;;;;2.22;0.80;;;;;;;2.45;100.00;96238.47;1041459;28;20799;-68
2023/01/14 00:00:50;;;;;;;3.33;0.85;;;;;;;2.53;100.00;96251.25;1036356;28;20057;-68
2023/01/14 00:01:30;;;;;;;1.05;0.68;;;;;;;2.52;100.00;96247.88;1034305;28;20396;-67
2023/01/14 00:02:00;;;;;;;2.45;0.70;;;;;;;2.54;100.00;96247.66;1030422;28;20019;-69
2023/01/14 00:02:33;;;;;;;3.33;0.90;;;;;;;2.50;100.00;96252.44;1031698;28;20393;-68
2023/01/14 00:03:03;;;;;;;1.38;0.70;;;;;;;2.50;100.00;96252.44;1034388;28;20038;-67
2023/01/14 00:03:33;;;;;;;2.25;0.68;;;;;;;2.48;100.00;96251.03;1031353;28;20258;-66
2023/01/14 00:04:04;;;;;;;2.35;0.65;;;;;;;2.42;100.00;96242.28;1038371;28;20025;-69
2023/01/14 00:04:34;;;;;;;2.97;0.60;;;;;;;2.45;100.00;96251.44;1034831;28;20029;-71
2023/01/14 00:05:05;;;;;;;3.70;0.93;;;;;;;2.42;100.00;96247.47;1034402;28;20068;-68
2023/01/14 00:05:35;;;;;;;1.05;0.73;;;;;;;2.38;100.00;96248.03;1040998;28;20498;-66
2023/01/14 00:06:06;;;;;;;1.83;0.73;;;;;;;2.35;100.00;96241.47;1039214;28;20107;-69
2023/01/14 00:06:36;;;;;;;1.23;0.60;;;;;;;2.37;100.00;96239.47;1038460;28;20013;-68
2023/01/14 00:07:07;;;;;;;2.67;0.55;;;;;;;2.35;100.00;96250.03;1036320;28;20061;-68
2023/01/14 00:07:37;;;;;;;3.83;0.88;;;;;;;2.30;100.00;96239.47;1038519;28;20408;-68
2023/01/14 00:08:08;;;;;;;2.00;0.75;;;;;;;2.28;100.00;96233.72;1030507;28;20026;-68
2023/01/14 00:08:38;;;;;;;1.75;1.00;;;;;;;2.34;100.00;96245.84;1030665;28;20021;-69
2023/01/14 00:09:12;;;;;;;1.10;0.60;;;;;;;2.32;100.00;96245.25;1030253;28;20026;-67
2023/01/14 00:09:43;;;;;;;0.40;0.40;;;;;;;2.30;100.00;96244.66;1030275;28;20491;-68
2023/01/14 00:10:14;;;;;;;4.35;0.77;;;;;;;2.24;100.00;96235.06;1030733;28;20272;-68
2023/01/14 00:10:44;;;;;;;4.15;0.75;;;;;;;2.30;100.00;96246.44;1033727;28;20024;-69
2023/01/14 00:11:15;;;;;;;2.40;0.73;;;;;;;2.26;100.00;96242.66;1030637;28;20411;-68
2023/01/14 00:11:45;;;;;;;6.35;0.73;;;;;;;2.30;100.00;96249.03;1030368;28;20026;-68
2023/01/14 00:12:19;;;;;;;4.18;0.73;;;;;;;2.29;100.00;96245.66;1030566;28;20114;-67
2023/01/14 00:12:49;;;;;;;2.97;0.63;;;;;;;2.34;100.00;96251.03;1032206;28;20022;-67
2023/01/14 00:13:20;;;;;;;2.53;0.75;;;;;;;2.28;100.00;96243.25;1031279;28;20269;-67
2023/01/14 00:13:50;;;;;;;1.42;0.75;;;;;;;2.33;100.00;96252.03;1030691;28;20098;-70
2023/01/14 00:14:28;;;;;;;1.00;0.70;;;;;;;2.31;100.00;96248.03;1030569;28;20550;-69
2023/01/14 00:14:59;;;;;;;1.48;0.75;;;;;;;2.32;100.00;96252.22;1038433;28;20017;-71
2023/01/14 00:15:29;;;;;;;2.90;0.50;;;;;;;2.35;100.00;96251.84;1039200;28;20669;-68
2023/01/14 00:16:00;;;;;;;8.27;0.80;;;;;;;2.35;100.00;96251.84;1038151;28;20048;-68
2023/01/14 00:16:30;;;;;;;0.98;0.88;;;;;;;2.34;100.00;96245.84;1030506;28;20699;-67
2023/01/14 00:17:01;;;;;;;4.47;0.70;;;;;;;2.29;100.00;96243.06;1030722;28;20613;-68
2023/01/14 00:17:31;;;;;;;1.17;0.50;;;;;;;2.32;100.00;96252.22;1034403;28;20053;-69
2023/01/14 00:18:01;;;;;;;2.83;0.90;;;;;;;2.36;100.00;96251.63;1042072;28;20028;-68
2023/01/14 00:18:33;;;;;;;3.13;0.95;;;;;;;2.32;100.00;96247.84;1038467;28;20018;-67
2023/01/14 00:19:03;;;;;;;1.02;0.68;;;;;;;2.29;100.00;96247.44;1034365;28;20022;-68
2023/01/14 00:19:34;;;;;;;2.85;0.82;;;;;;;2.33;100.00;96253.81;1034539;28;20261;-68
2023/01/14 00:20:05;;;;;;;5.20;0.82;;;;;;;2.29;100.00;96252.63;1034387;28;20029;-69
2023/01/14 00:20:35;;;;;;;1.95;0.52;;;;;;;2.28;100.00;96254.41;1039277;28;20017;-69
2023/01/14 00:21:09;;;;;;;1.15;0.70;;;;;;;2.32;100.00;96252.22;1041922;28;20036;-69
2023/01/14 00:21:41;;;;;;;0.50;0.50;;;;;;;2.34;100.00;96251.03;1034440;28;20570;-68
2023/01/14 00:22:12;;;;;;;2.08;0.68;;;;;;;2.33;100.00;96248.63;1031401;28;20270;-68
2023/01/14 00:22:42;;;;;;;3.53;0.80;;;;;;;2.40;100.00;96253.81;1030988;28;20331;-68
2023/01/14 00:23:13;;;;;;;2.47;0.60;;;;;;;2.43;100.00;96254.22;1035446;28;20022;-70
2023/01/14 00:23:43;;;;;;;1.75;0.88;;;;;;;2.43;100.00;96245.66;1042766;28;20494;-69
2023/01/14 00:24:14;;;;;;;0.60;0.60;;;;;;;2.38;100.00;96255.81;1041193;28;20025;-68
2023/01/14 00:24:46;;;;;;;2.65;0.75;;;;;;;2.43;100.00;96262.00;1031473;28;20011;-67
2023/01/14 00:25:17;;;;;;;1.90;0.65;;;;;;;2.42;100.00;96252.63;1034613;28;20662;-73
2023/01/14 00:25:47;;;;;;;4.20;1.98;;;;;;;2.40;100.00;96257.22;1034871;28;20257;-69
2023/01/14 00:26:18;;;;;;;4.80;0.90;;;;;;;2.38;100.00;96256.59;1032760;28;20044;-69
2023/01/14 00:26:52;;;;;;;2.38;0.60;;;;;;;2.34;100.00;96253.59;1030313;28;20018;-68
2023/01/14 00:27:22;;;;;;;1.45;0.70;;;;;;;2.36;100.00;96254.22;1022945;28;20026;-68
2023/01/14 00:27:53;;;;;;;1.15;0.70;;;;;;;2.37;100.00;96252.41;1027050;28;20263;-68
2023/01/14 00:28:23;;;;;;;4.82;0.95;;;;;;;2.38;100.00;96248.81;1026970;28;20029;-69
2023/01/14 00:28:54;;;;;;;2.80;0.73;;;;;;;2.39;100.00;96250.44;1030600;28;20668;-70
2023/01/14 00:29:29;;;;;;;3.72;0.80;;;;;;;2.37;100.00;96249.84;1041807;28;20100;-69
2023/01/14 00:29:59;;;;;;;2.17;0.90;;;;;;;2.35;100.00;96246.66;1043073;28;20017;-71
2023/01/14 00:30:29;;;;;;;2.10;0.95;;;;;;;2.34;100.00;96256.19;1046915;28;20266;-69
2023/01/14 00:31:08;;;;;;;2.92;0.68;;;;;;;2.29;100.00;96244.84;1042981;28;20151;-70
2023/01/14 00:31:38;;;;;;;6.95;0.80;;;;;;;2.29;100.00;96250.03;1034524;28;20105;-72
2023/01/14 00:32:09;;;;;;;5.88;1.00;;;;;;;2.26;100.00;96243.47;1030201;28;20980;-67
2023/01/14 00:32:39;;;;;;;0.75;0.63;;;;;;;2.24;100.00;96247.22;1032178;28;20026;-68
2023/01/14 00:33:09;;;;;;;1.98;0.70;;;;;;;2.24;100.00;96249.81;1036216;28;20103;-69
2023/01/14 00:33:40;;;;;;;4.43;1.67;;;;;;;2.25;100.00;96248.84;1032677;28;20030;-68
2023/01/14 00:34:11;;;;;;;2.20;0.70;;;;;;;2.28;100.00;96240.66;1034242;28;20723;-68
2023/01/14 00:34:41;;;;;;;6.65;0.65;;;;;;;2.29;100.00;96244.84;1034806;28;20052;-71
2023/01/14 00:35:12;;;;;;;1.67;0.68;;;;;;;2.34;100.00;96255.41;1041359;28;20051;-68
2023/01/14 00:35:42;;;;;;;2.85;1.27;;;;;;;2.30;100.00;96249.81;1033821;28;20450;-68
2023/01/14 00:36:14;;;;;;;1.13;0.50;;;;;;;2.29;100.00;96250.03;1034582;28;20026;-68
2023/01/14 00:36:45;;;;;;;2.38;0.70;;;;;;;2.27;100.00;96244.25;1034357;28;20021;-67
2023/01/14 00:37:15;;;;;;;4.32;0.80;;;;;;;2.34;100.00;96258.00;1034759;28;20356;-68
2023/01/14 00:37:46;;;;;;;1.73;0.65;;;;;;;2.38;100.00;96251.41;1033978;28;20018;-68
2023/01/14 00:38:16;;;;;;;2.15;0.70;;;;;;;2.35;100.00;96254.44;1030645;28;20021;-68
2023/01/14 00:38:47;;;;;;;3.08;0.50;;;;;;;2.32;100.00;96252.22;1038493;28;20018;-68
2023/01/14 00:39:17;;;;;;;1.90;0.40;;;;;;;2.34;100.00;96252.81;1034473;28;20046;-71
2023/01/14 00:39:48;;;;;;;2.35;0.70;;;;;;;2.35;100.00;96262.19;1034595;28;20530;-67
2023/01/14 00:40:18;;;;;;;3.00;0.90;;;;;;;2.39;100.00;96257.41;1033360;28;20022;-68
2023/01/14 00:40:49;;;;;;;0.90;0.70;;;;;;;2.35;100.00;96259.59;1026201;28;20026;-67
2023/01/14 00:41:23;;;;;;;1.48;0.60;;;;;;;2.31;100.00;96255.78;1030674;28;20015;-69
2023/01/14 00:41:54;;;;;;;2.17;0.70;;;;;;;2.33;100.00;96248.63;1034098;28;20384;-66
2023/01/14 00:42:24;;;;;;;1.23;0.90;;;;;;;2.29;100.00;96261.19;1034351;28;20269;-67
2023/01/14 00:42:55;;;;;;;5.65;0.65;;;;;;;2.24;100.00;96255.78;1038548;28;20483;-69
2023/01/14 00:43:25;;;;;;;1.48;0.90;;;;;;;2.22;100.00;96255.19;1038478;28;20028;-68
2023/01/14 00:43:57;;;;;;;1.92;0.43;;;;;;;2.11;100.00;96246.22;1038516;28;20014;-70
2023/01/14 00:44:27;;;;;;;4.32;0.60;;;;;;;2.09;100.00;96248.22;1038260;28;20395;-69
2023/01/14 00:44:58;;;;;;;2.50;1.02;;;;;;;2.11;100.00;96253.19;1038264;28;20256;-68
2023/01/14 00:45:28;;;;;;;2.45;0.60;;;;;;;2.09;100.00;96248.22;1035845;28;20113;-67
2023/01/14 00:45:59;;;;;;;2.83;1.15;;;;;;;2.07;100.00;96247.59;1038240;28;20025;-67
2023/01/14 00:46:33;;;;;;;1.58;0.60;;;;;;;2.08;100.00;96248.41;1038538;28;20018;-70
2023/01/14 00:47:04;;;;;;;2.58;0.50;;;;;;;2.06;100.00;96242.63;1043186;28;20052;-69
2023/01/14 00:47:34;;;;;;;3.33;1.08;;;;;;;2.12;100.00;96253.00;1047227;28;20282;-68
2023/01/14 00:48:05;;;;;;;3.05;0.80;;;;;;;2.13;100.00;96249.41;1051168;28;20027;-70
2023/01/14 00:48:36;;;;;;;2.65;0.52;;;;;;;2.08;100.00;96249.22;1046825;28;20565;-69
2023/01/14 00:49:07;;;;;;;1.08;0.70;;;;;;;2.00;100.00;96244.19;1034620;28;20026;-68
2023/01/14 00:49:38;;;;;;;2.25;0.50;;;;;;;1.98;100.00;96250.56;1034624;28;20083;-69
2023/01/14 00:50:10;;;;;;;1.42;0.50;;;;;;;2.03;100.00;96254.16;1034156;28;20261;-69
2023/01/14 00:50:41;;;;;;;4.65;1.00;;;;;;;1.97;100.00;96254.94;1033393;28;20027;-68
2023/01/14 00:51:11;;;;;;;1.77;0.70;;;;;;;1.86;100.00;96242.56;1030322;28;20273;-69
2023/01/14 00:51:42;;;;;;;2.50;0.90;;;;;;;1.89;100.00;96255.13;1026301;28;20465;-68
2023/01/14 00:52:12;;;;;;;4.03;0.95;;;;;;;1.95;100.00;96254.34;1026399;28;20055;-68
2023/01/14 00:52:43;;;;;;;3.40;0.50;;;;;;;1.96;100.00;96248.19;1026583;28;20023;-68
2023/01/14 00:53:13;;;;;;;0.57;0.47;;;;;;;1.94;100.00;96244.19;1034024;28;20041;-69
2023/01/14 00:53:45;;;;;;;1.67;0.90;;;;;;;1.85;100.00;96235.81;1030680;28;20026;-70
2023/01/14 00:54:16;;;;;;;2.90;0.60;;;;;;;1.93;100.00;96245.19;1028231;28;20018;-67
2023/01/14 00:54:46;;;;;;;1.70;0.75;;;;;;;2.00;100.00;96239.03;1026137;28;20342;-67
2023/01/14 00:55:17;;;;;;;0.50;0.50;;;;;;;2.01;100.00;96251.00;1030354;28;20018;-68
2023/01/14 00:55:47;;;;;;;2.00;0.35;;;;;;;1.96;100.00;96232.66;1031921;28;20054;-69
2023/01/14 00:56:19;;;;;;;4.47;1.02;;;;;;;2.07;100.00;96245.00;1030981;28;20025;-69
2023/01/14 00:56:49;;;;;;;2.78;0.70;;;;;;;2.15;100.00;96238.88;1038207;28;20021;-72
2023/01/14 00:57:19;;;;;;;1.92;0.60;;;;;;;2.16;100.00;96248.22;1035103;28;20252;-69
2023/01/14 00:57:50;;;;;;;1.27;0.50;;;;;;;2.11;100.00;96242.81;1038718;28;20061;-68
2023/01/14 00:58:20;;;;;;;1.67;0.50;;;;;;;2.08;100.00;96241.44;1034482;28;20751;-67
2023/01/14 00:58:51;;;;;;;2.08;0.80;;;;;;;2.05;100.00;96241.84;1038400;28;20028;-68
2023/01/14 00:59:22;;;;;;;2.20;0.90;;;;;;;2.07;100.00;96234.66;1042035;28;20025;-69
2023/01/14 00:59:52;;;;;;;1.88;0.70;;;;;;;2.12;100.00;96224.53;1034496;28;20774;-69
2023/01/14 01:00:23;;;;;;;7.28;0.90;;;;;;;2.17;100.00;96233.47;1030228;28;20265;-69
2023/01/14 01:00:54;;;;;;;1.48;0.68;;;;;;;2.20;100.00;96230.50;1026241;28;20452;-68
2023/01/14 01:01:24;;;;;;;0.55;0.43;;;;;;;2.17;100.00;96238.66;1025974;28;20536;-70
2023/01/14 01:01:55;;;;;;;3.35;0.80;;;;;;;2.23;100.00;96232.69;1030454;28;20018;-69
2023/01/14 01:02:25;;;;;;;5.15;0.70;;;;;;;2.22;100.00;96238.88;1038147;28;20083;-68
2023/01/14 01:02:57;;;;;;;3.42;0.57;;;;;;;2.19;100.00;96231.50;1038346;28;20099;-70
2023/01/14 01:03:27;;;;;;;4.95;0.70;;;;;;;2.16;100.00;96232.69;1030026;28;20026;-68
2023/01/14 01:03:58;;;;;;;1.80;0.68;;;;;;;2.28;100.00;96231.13;1030390;28;20752;-70
2023/01/14 01:04:28;;;;;;;1.25;0.60;;;;;;;2.29;100.00;96221.56;1034535;28;20029;-70
2023/01/14 01:04:59;;;;;;;2.50;0.50;;;;;;;2.23;100.00;96224.94;1038226;28;20021;-69
2023/01/14 01:05:34;;;;;;;3.80;0.57;;;;;;;2.16;100.00;96214.56;1033586;28;20022;-68
2023/01/14 01:06:04;;;;;;;1.95;0.50;;;;;;;2.20;100.00;96215.75;1038163;28;20029;-70
2023/01/14 01:06:35;;;;;;;1.85;0.60;;;;;;;2.13;100.00;96220.94;1039053;28;20256;-69
2023/01/14 01:07:05;;;;;;;0.65;0.35;;;;;;;2.11;100.00;96214.34;1039822;28;20124;-69
2023/01/14 01:07:36;;;;;;;3.00;0.70;;;;;;;2.12;100.00;96216.75;1041979;28;20050;-71
2023/01/14 01:08:07;;;;;;;5.22;0.80;;;;;;;2.07;100.00;96210.56;1038368;28;20018;-69
2023/01/14 01:08:39;;;;;;;1.95;0.70;;;;;;;2.04;100.00;96214.34;1038979;28;20626;-69
2023/01/14 01:09:10;;;;;;;3.72;0.70;;;;;;;2.09;100.00;96219.75;1038730;28;20256;-68
2023/01/14 01:09:40;;;;;;;2.10;0.60;;;;;;;2.07;100.00;96210.56;1042351;28;20252;-70
2023/01/14 01:10:11;;;;;;;2.40;0.60;;;;;;;2.10;100.00;96223.13;1038491;28;20048;-70
2023/01/14 01:10:43;;;;;;;1.77;0.55;;;;;;;2.15;100.00;96222.50;1034358;28;20554;-70
2023/01/14 01:11:14;;;;;;;4.22;0.95;;;;;;;2.05;100.00;96210.78;1037689;28;20474;-69
2023/01/14 01:11:44;;;;;;;4.07;1.08;;;;;;;2.09;100.00;96229.28;1034061;28;20345;-71
2023/01/14 01:12:15;;;;;;;1.48;0.40;;;;;;;2.06;100.00;96225.31;1030152;28;20018;-69
2023/01/14 01:12:46;;;;;;;2.22;0.70;;;;;;;2.02;100.00;96226.69;1028356;28;20455;-69
2023/01/14 01:13:17;;;;;;;3.63;0.90;;;;;;;2.08;100.00;96230.31;1029984;28;20285;-68
2023/01/14 01:13:48;;;;;;;2.20;0.80;;;;;;;2.06;100.00;96235.66;1030087;28;20272;-69
2023/01/14 01:14:19;;;;;;;0.80;0.70;;;;;;;1.97;100.00;96216.13;1030456;28;20793;-70
2023/01/14 01:14:50;;;;;;;2.70;0.63;;;;;;;1.97;100.00;96223.88;1030578;28;20615;-69
2023/01/14 01:15:21;;;;;;;2.75;0.80;;;;;;;2.00;100.00;96228.66;1027059;28;21201;-69
2023/01/14 01:15:51;;;;;;;1.10;0.45;;;;;;;2.05;100.00;96230.69;1029382;28;20261;-68
2023/01/14 01:16:24;;;;;;;3.47;0.63;;;;;;;1.92;100.00;96221.09;1030119;28;20081;-68
2023/01/14 01:16:54;;;;;;;6.25;0.80;;;;;;;1.94;100.00;96228.66;1027280;28;20023;-66
2023/01/14 01:17:25;;;;;;;1.42;0.50;;;;;;;1.94;100.00;96229.44;1034782;28;20280;-71
2023/01/14 01:17:55;;;;;;;2.08;0.68;;;;;;;1.93;100.00;96232.25;1038456;28;20430;-69
2023/01/14 01:18:26;;;;;;;1.77;0.65;;;;;;;1.92;100.00;96228.06;1042881;28;20025;-69
2023/01/14 01:18:57;;;;;;;1.60;0.77;;;;;;;1.87;100.00;96231.22;1042435;28;20126;-68
2023/01/14 01:19:27;;;;;;;3.83;0.93;;;;;;;1.87;100.00;96234.59;1033091;28;20529;-69
2023/01/14 01:19:57;;;;;;;1.10;0.70;;;;;;;1.84;100.00;96236.78;1030352;28;20030;-69
2023/01/14 01:20:28;;;;;;;5.88;0.73;;;;;;;1.88;100.00;96230.25;1030276;28;20491;-67
2023/01/14 01:21:02;;;;;;;2.35;0.77;;;;;;;1.82;100.00;96223.28;1030793;28;20022;-71
2023/01/14 01:21:33;;;;;;;2.35;0.65;;;;;;;1.88;100.00;96228.47;1042477;28;20540;-70
2023/01/14 01:22:03;;;;;;;2.30;0.63;;;;;;;1.93;100.00;96232.25;1034675;28;20319;-69
2023/01/14 01:22:34;;;;;;;2.75;0.68;;;;;;;1.82;100.00;96218.09;1034721;28;20026;-68
2023/01/14 01:23:04;;;;;;;2.47;0.80;;;;;;;1.79;100.00;96228.84;1030047;28;20030;-68
2023/01/14 01:23:40;;;;;;;2.50;0.50;;;;;;;1.77;100.00;96218.66;1034581;28;20468;-69
2023/01/14 01:24:10;;;;;;;1.75;0.57;;;;;;;1.81;100.00;96224.25;1038246;28;20197;-70
2023/01/14 01:24:41;;;;;;;1.27;0.68;;;;;;;1.78;100.00;96229.84;1032226;28;20261;-71
2023/01/14 01:25:11;;;;;;;2.05;0.93;;;;;;;1.75;100.00;96235.38;1035204;28;20642;-70
2023/01/14 01:25:42;;;;;;;0.88;0.73;;;;;;;1.81;100.00;96230.25;1038228;28;20568;-68
2023/01/14 01:26:17;;;;;;;5.30;0.80;;;;;;;1.80;100.00;96226.03;1038129;28;20104;-69
2023/01/14 01:26:48;;;;;;;3.15;0.88;;;;;;;1.78;100.00;96224.66;1038129;28;20025;-68
2023/01/14 01:27:18;;;;;;;4.70;0.60;;;;;;;1.78;100.00;96214.31;1038186;28;20267;-68
2023/01/14 01:27:49;;;;;;;4.63;0.77;;;;;;;1.85;100.00;96220.28;1030672;28;20022;-70
2023/01/14 01:28:19;;;;;;;2.72;0.50;;;;;;;1.88;100.00;96233.63;1038190;28;20490;-69
2023/01/14 01:28:51;;;;;;;1.88;0.57;;;;;;;1.84;100.00;96235.00;1038358;28;20013;-68
2023/01/14 01:29:22;;;;;;;1.63;0.63;;;;;;;1.85;100.00;96220.28;1038448;28;20798;-68
2023/01/14 01:29:53;;;;;;;1.95;0.40;;;;;;;1.86;100.00;96227.06;1031500;28;20284;-69
2023/01/14 01:30:24;;;;;;;2.33;0.68;;;;;;;1.98;100.00;96238.44;1030322;28;20046;-68
2023/01/14 01:31:02;;;;;;;5.68;0.68;;;;;;;1.95;100.00;96231.06;1030857;28;20352;-68
2023/01/14 01:31:32;;;;;;;2.35;0.50;;;;;;;1.98;100.00;96235.84;1032597;28;20057;-69
2023/01/14 01:32:03;;;;;;;2.10;0.57;;;;;;;1.89;100.00;96224.06;1035504;28;20264;-69
2023/01/14 01:32:33;;;;;;;1.65;0.50;;;;;;;1.91;100.00;96235.00;1033135;28;20018;-67
2023/01/14 01:33:04;;;;;;;5.75;0.70;;;;;;;1.96;100.00;96232.66;1027576;28;20023;-69
2023/01/14 01:33:34;;;;;;;1.15;0.35;;;;;;;1.96;100.00;96235.25;1038293;28;20029;-68
2023/01/14 01:34:05;;;;;;;0.30;0.30;;;;;;;2.00;100.00;96233.06;1030359;28;20492;-67
2023/01/14 01:34:35;;;;;;;4.97;0.65;;;;;;;2.05;100.00;96241.84;1034612;28;20095;-72
2023/01/14 01:35:06;;;;;;;2.58;0.80;;;;;;;2.04;100.00;96247.97;1034079;28;20025;-68
2023/01/14 01:35:37;;;;;;;2.65;0.65;;;;;;;2.08;100.00;96246.63;1033956;28;20018;-68
2023/01/14 01:36:18;;;;;;;3.25;0.57;;;;;;;2.06;100.00;96243.41;1042664;28;20029;-68
2023/01/14 01:36:48;;;;;;;2.53;0.82;;;;;;;2.11;100.00;96246.22;1038244;28;20006;-67
2023/01/14 01:37:19;;;;;;;1.48;0.50;;;;;;;2.11;100.00;96238.47;1038519;28;21149;-68
2023/01/14 01:37:50;;;;;;;1.95;0.47;;;;;;;2.13;100.00;96233.88;1038327;28;20017;-70
2023/01/14 01:38:20;;;;;;;2.63;0.93;;;;;;;2.28;100.00;96245.84;1030113;28;20030;-68
2023/01/14 01:38:51;;;;;;;1.80;0.50;;;;;;;2.27;100.00;96247.63;1030169;28;20254;-68
2023/01/14 01:39:21;;;;;;;4.30;0.60;;;;;;;2.26;100.00;96247.84;1030276;28;20026;-70
2023/01/14 01:39:52;;;;;;;4.45;0.90;;;;;;;2.24;100.00;96249.81;1030490;28;20038;-70
2023/01/14 01:40:22;;;;;;;4.30;0.70;;;;;;;2.19;100.00;96236.69;1036745;28;20022;-68
2023/01/14 01:40:53;;;;;;;7.72;1.15;;;;;;;2.25;100.00;96251.44;1030293;28;20027;-69
2023/01/14 01:41:28;;;;;;;6.63;1.38;;;;;;;2.25;100.00;96252.22;1034464;28;20068;-72
2023/01/14 01:41:59;;;;;;;0.65;0.40;;;;;;;2.22;100.00;96239.66;1035139;28;20044;-67
2023/01/14 01:42:33;;;;;;;5.68;1.08;;;;;;;2.30;100.00;96243.84;1030140;28;20285;-70
2023/01/14 01:43:08;;;;;;;3.80;0.50;;;;;;;2.38;100.00;96251.41;1030349;28;20495;-70
2023/01/14 01:44:00;;;;;;;4.85;0.40;;;;;;;2.43;100.00;96248.25;1029745;28;20643;-68
2023/01/14 01:44:31;;;;;;;3.80;0.30;;;;;;;2.52;100.00;96247.06;1026196;28;20851;-69
2023/01/14 01:45:27;;;;;;;4.63;0.95;;;;;;;2.50;100.00;96249.84;1029389;28;20261;-69
2023/01/14 01:45:59;;;;;;;2.58;0.63;;;;;;;2.47;100.00;96252.81;1030133;28;20019;-71
2023/01/14 01:46:32;;;;;;;7.72;0.38;;;;;;;2.46;100.00;96240.88;1029654;28;20272;-69
2023/01/14 01:47:03;;;;;;;2.10;0.88;;;;;;;2.59;100.00;96248.66;1030118;28;20026;-70
2023/01/14 01:47:33;;;;;;;5.45;1.13;;;;;;;2.63;100.00;96237.91;1033725;28;20245;-68
2023/01/14 01:48:10;;;;;;;3.72;1.02;;;;;;;2.65;100.00;96247.06;1030712;28;20041;-71
2023/01/14 01:48:42;;;;;;;3.05;0.47;;;;;;;2.59;100.00;96243.47;1030210;28;20501;-68
2023/01/14 01:49:22;;;;;;;4.15;0.60;;;;;;;2.57;100.00;96234.31;1033988;28;20782;-68
2023/01/14 01:49:52;;;;;;;4.95;0.70;;;;;;;2.58;100.00;96247.06;1030396;28;20289;-69
2023/01/14 01:50:23;;;;;;;3.80;0.82;;;;;;;2.64;100.00;96249.84;1030172;28;20257;-68
2023/01/14 01:50:57;;;;;;;3.90;0.75;;;;;;;2.65;100.00;96248.84;1030402;28;20035;-69
2023/01/14 01:51:28;;;;;;;3.30;0.60;;;;;;;2.60;100.00;96239.88;1030058;28;20068;-69
2023/01/14 01:52:03;;;;;;;3.72;0.85;;;;;;;2.70;100.00;96243.88;1034181;28;20267;-69
2023/01/14 01:52:34;;;;;;;2.92;0.52;;;;;;;2.74;100.00;96245.84;1038077;28;20271;-71
2023/01/14 01:53:04;;;;;;;4.40;0.75;;;;;;;2.72;100.00;96247.06;1030021;28;20301;-69
2023/01/14 01:53:37;;;;;;;3.47;0.70;;;;;;;2.73;100.00;96243.47;1030919;28;20033;-68
2023/01/14 01:54:07;;;;;;;5.50;0.77;;;;;;;2.78;100.00;96251.44;1026440;28;20154;-69
2023/01/14 01:54:45;;;;;;;6.20;1.60;;;;;;;2.78;100.00;96252.25;1021399;29;20292;-70
2023/01/14 01:55:15;;;;;;;4.43;1.00;;;;;;;2.76;100.00;96256.81;1022254;29;20039;-69
2023/01/14 01:55:48;;;;;;;5.65;0.60;;;;;;;2.82;100.00;96257.81;1031249;28;20699;-70
2023/01/14 01:56:20;;;;;;;5.53;1.20;;;;;;;2.86;100.00;96259.00;1034177;28;20080;-69
2023/01/14 01:56:51;;;;;;;2.78;0.60;;;;;;;2.80;100.00;96254.63;1034169;28;20272;-69
2023/01/14 01:57:21;;;;;;;5.32;0.77;;;;;;;2.79;100.00;96253.03;1027878;28;20330;-69
2023/01/14 01:57:55;;;;;;;4.53;0.90;;;;;;;2.75;100.00;96249.22;1030099;28;20477;-70
2023/01/14 01:58:26;;;;;;;4.32;0.57;;;;;;;2.74;100.00;96253.63;1030046;28;20018;-68
2023/01/14 01:58:56;;;;;;;2.13;0.80;;;;;;;2.69;100.00;96247.47;1034468;28;20315;-69
2023/01/14 01:59:29;;;;;;;7.97;1.70;;;;;;;2.68;100.00;96245.84;1027008;28;20038;-69
2023/01/14 02:00:03;;;;;;;4.13;0.90;;;;;;;2.78;100.00;96247.06;1034595;28;20029;-69
2023/01/14 02:00:34;;;;;;;3.13;0.73;;;;;;;2.80;100.00;96259.81;1039155;28;20818;-69
2023/01/14 02:01:04;;;;;;;1.98;0.57;;;;;;;2.79;100.00;96258.22;1034912;28;20279;-69
2023/01/14 02:01:37;;;;;;;8.35;1.13;;;;;;;2.72;100.00;96254.84;1036376;28;20026;-70
2023/01/14 02:02:08;;;;;;;3.45;0.73;;;;;;;2.73;100.00;96259.03;1030636;28;20034;-68
2023/01/14 02:02:38;;;;;;;2.28;0.65;;;;;;;2.69;100.00;96257.84;1029409;28;20273;-69
2023/01/14 02:03:18;;;;;;;2.95;0.80;;;;;;;2.65;100.00;96254.84;1039254;28;20124;-69
2023/01/14 02:03:49;;;;;;;5.43;0.93;;;;;;;2.59;100.00;96259.03;1039134;28;20017;-69
2023/01/14 02:04:20;;;;;;;3.40;0.80;;;;;;;2.72;100.00;96257.44;1030717;28;20053;-68
2023/01/14 02:04:50;;;;;;;1.35;0.60;;;;;;;2.70;100.00;96259.41;1027115;28;20103;-69
2023/01/14 02:05:21;;;;;;;6.03;0.82;;;;;;;2.73;100.00;96256.44;1030749;28;20030;-69
2023/01/14 02:05:51;;;;;;;1.13;0.40;;;;;;;2.76;100.00;96258.63;1027557;28;20412;-69
2023/01/14 02:06:23;;;;;;;4.22;0.88;;;;;;;2.78;100.00;96261.78;1026775;28;20591;-68
2023/01/14 02:06:54;;;;;;;1.77;0.63;;;;;;;2.72;100.00;96255.63;1027188;28;20031;-68
2023/01/14 02:07:25;;;;;;;3.10;0.80;;;;;;;2.70;100.00;96255.03;1031831;28;20258;-69
2023/01/14 02:07:56;;;;;;;4.13;0.88;;;;;;;2.70;100.00;96252.44;1039730;28;20072;-69
2023/01/14 02:08:27;;;;;;;6.43;0.70;;;;;;;2.71;100.00;96261.00;1038819;28;20350;-69
2023/01/14 02:08:57;;;;;;;3.05;0.60;;;;;;;2.68;100.00;96257.00;1031281;28;20667;-69
2023/01/14 02:09:28;;;;;;;5.25;1.10;;;;;;;2.67;100.00;96255.44;1027949;28;20026;-68
2023/01/14 02:09:59;;;;;;;2.78;0.60;;;;;;;2.68;100.00;96256.22;1035142;28;20067;-70
2023/01/14 02:10:52;;;;;;;1.88;0.73;;;;;;;2.78;100.00;96264.38;1042979;28;20020;-68
2023/01/14 02:11:41;;;;;;;2.35;0.65;;;;;;;2.77;100.00;96266.19;1030892;28;20265;-68
2023/01/14 02:12:23;;;;;;;8.38;0.70;;;;;;;2.75;100.00;96262.19;1033248;28;20258;-70
2023/01/14 02:13:20;;;;;;;4.30;0.70;;;;;;;2.78;100.00;96262.63;1039617;28;20320;-71
2023/01/14 02:14:27;;;;;;;3.38;0.60;;;;;;;2.76;100.00;96266.41;1030057;28;20270;-71
2023/01/14 02:15:16;;;;;;;3.40;0.88;;;;;;;2.72;100.00;96273.78;1028635;28;20238;-71
2023/01/14 02:16:11;;;;;;;2.55;0.73;;;;;;;2.75;100.00;96263.00;1036753;28;20257;-70
2023/01/14 02:17:18;;;;;;;6.25;0.68;;;;;;;2.79;100.00;96266.00;1028961;28;20680;-75
2023/01/14 02:18:03;;;;;;;3.40;0.82;;;;;;;2.75;100.00;96272.56;1032698;28;20250;-71
2023/01/14 02:18:51;;;;;;;6.97;0.90;;;;;;;2.76;100.00;96263.81;1038212;28;20264;-71
2023/01/14 02:20:04;;;;;;;4.03;0.80;;;;;;;2.79;100.00;96268.59;1039908;28;20941;-71
2023/01/14 02:20:34;;;;;;;3.38;0.60;;;;;;;2.81;100.00;96266.56;1034823;28;20238;-68
2023/01/14 02:21:47;;;;;;;4.63;0.77;;;;;;;2.85;100.00;96265.19;1044248;28;20347;-71
2023/01/14 02:22:24;;;;;;;5.93;0.77;;;;;;;2.84;100.00;96266.97;1036341;28;20037;-70
2023/01/14 02:23:12;;;;;;;4.90;1.15;;;;;;;2.87;100.00;96265.00;1043652;28;20248;-71
2023/01/14 02:24:13;;;;;;;3.55;0.70;;;;;;;2.94;100.00;96266.56;1045289;28;20293;-67
2023/01/14 02:24:58;;;;;;;9.00;0.80;;;;;;;2.96;100.00;96258.59;1047514;28;20262;-70
2023/01/14 02:25:49;;;;;;;1.52;0.55;;;;;;;3.00;100.00;96264.97;1043005;28;20021;-72
2023/01/14 02:26:46;;;;;;;2.72;0.70;;;;;;;3.10;100.00;96260.19;1040078;28;20267;-72
2023/01/14 02:27:27;;;;;;;4.65;0.98;;;;;;;3.10;100.00;96261.97;1042422;28;20422;-69
2023/01/14 02:28:35;;;;;;;4.60;0.50;;;;;;;3.11;100.00;96261.75;1042428;28;20261;-70
2023/01/14 02:29:26;;;;;;;1.80;0.63;;;;;;;3.13;100.00;96256.38;1043842;28;20252;-72
2023/01/14 02:30:27;;;;;;;4.15;1.45;;;;;;;3.11;100.00;96255.78;1042653;28;20256;-70
2023/01/14 02:31:11;;;;;;;1.67;0.60;;;;;;;3.17;100.00;96255.78;1043117;28;20293;-70
2023/01/14 02:32:12;;;;;;;4.65;0.93;;;;;;;3.22;100.00;96249.97;1045766;28;20313;-69
2023/01/14 02:32:53;;;;;;;3.15;0.50;;;;;;;3.25;100.00;96255.56;1043817;28;20262;-69
2023/01/14 02:33:43;;;;;;;3.15;0.90;;;;;;;3.20;100.00;96247.59;1039769;28;20468;-69
2023/01/14 02:34:25;;;;;;;2.72;0.65;;;;;;;3.26;100.00;96246.78;1038648;28;20361;-71
2023/01/14 02:35:13;;;;;;;4.88;0.82;;;;;;;3.25;100.00;96252.16;1031898;28;20469;-70
2023/01/14 02:36:24;;;;;;;3.90;0.68;;;;;;;3.25;100.00;96259.94;1030896;28;20258;-72
2023/01/14 02:37:17;;;;;;;7.88;0.60;;;;;;;3.27;100.00;96250.16;1038902;28;20264;-70
2023/01/14 02:37:59;;;;;;;4.47;0.55;;;;;;;3.26;100.00;96253.78;1039589;28;20264;-70
2023/01/14 02:38:48;;;;;;;2.10;0.43;;;;;;;3.27;100.00;96255.34;1039469;28;20252;-70
2023/01/14 02:39:48;;;;;;;2.67;0.63;;;;;;;3.21;100.00;96245.78;1039994;28;20264;-69
2023/01/14 02:40:23;;;;;;;0.93;0.77;;;;;;;3.30;100.00;96249.75;1039803;28;20267;-70